createdAt,value
2022-10-04T00:05:30.505Z,88.17
2022-10-04T00:15:38.557Z,87.17
2022-10-04T00:25:41.918Z,87.57
2022-10-04T00:35:51.804Z,88.93
2022-10-04T00:46:00.982Z,91.27
2022-10-04T00:56:11.449Z,89.83
2022-10-04T01:06:16.488Z,86.53
2022-10-04T01:16:27.242Z,86.97
2022-10-04T01:26:42.263Z,88.00
2022-10-04T01:36:47.368Z,91.07
2022-10-04T01:46:57.011Z,90.03
2022-10-04T01:57:07.785Z,90.87
2022-10-04T02:07:17.041Z,87.87
2022-10-04T02:17:23.073Z,90.77
2022-10-04T02:27:31.441Z,87.30
2022-10-04T02:37:35.178Z,86.97
2022-10-04T02:47:46.535Z,84.87
2022-10-04T02:57:52.568Z,89.03
2022-10-04T03:07:57.831Z,90.63
2022-10-04T03:18:01.704Z,88.03
2022-10-04T03:28:07.561Z,88.17
2022-10-04T03:38:14.318Z,86.33
2022-10-04T03:48:31.205Z,85.50
2022-10-04T03:58:34.865Z,87.70
2022-10-04T04:08:44.616Z,86.73
2022-10-04T04:18:50.576Z,87.43
2022-10-04T04:28:59.210Z,86.30
2022-10-04T04:39:31.289Z,84.27
2022-10-04T04:49:40.407Z,86.53
2022-10-04T04:59:48.910Z,87.80
2022-10-04T05:09:53.545Z,88.23
2022-10-04T05:20:00.726Z,86.33
2022-10-04T05:30:10.475Z,86.63
2022-10-04T05:40:37.482Z,89.30
2022-10-04T05:50:43.744Z,90.27
2022-10-04T06:01:16.466Z,99.40
2022-10-04T06:11:42.289Z,92.93
2022-10-04T06:22:06.619Z,90.73
2022-10-04T06:32:56.483Z,90.83
2022-10-04T06:43:23.721Z,98.80
2022-10-04T06:53:42.213Z,89.60
2022-10-04T07:03:54.680Z,90.73
2022-10-04T07:14:06.658Z,91.43
2022-10-04T07:24:14.069Z,89.10
2022-10-04T07:34:25.851Z,91.83
2022-10-04T07:44:37.520Z,92.90
2022-10-04T07:54:52.590Z,93.83
2022-10-04T08:05:10.970Z,89.73
2022-10-04T08:15:37.566Z,89.17
2022-10-04T08:25:50.145Z,89.40
2022-10-04T08:36:07.660Z,90.57
2022-10-04T08:46:54.359Z,99.47
2022-10-04T08:57:27.178Z,90.30
2022-10-04T09:08:19.693Z,88.80
2022-10-04T09:19:12.938Z,88.77
2022-10-04T09:29:52.140Z,90.90
2022-10-04T09:40:47.110Z,94.77
2022-10-04T09:51:47.897Z,88.80
2022-10-04T10:02:29.269Z,92.73
2022-10-04T10:13:14.594Z,96.60
2022-10-04T10:23:52.513Z,101.07
2022-10-04T10:34:26.621Z,101.60
2022-10-04T10:44:53.225Z,102.97
2022-10-04T10:55:22.510Z,99.77
2022-10-04T11:06:00.134Z,105.43
2022-10-04T11:17:01.784Z,106.57
2022-10-04T11:27:18.158Z,108.43
2022-10-04T11:37:34.292Z,99.37
2022-10-04T11:47:50.210Z,110.93
2022-10-04T11:57:58.752Z,104.20
2022-10-04T12:08:27.517Z,105.17
2022-10-04T12:19:07.260Z,99.40
2022-10-04T12:29:54.315Z,105.03
2022-10-04T12:40:22.783Z,112.57
2022-10-04T12:50:48.013Z,110.33
2022-10-04T13:00:57.728Z,118.88
2022-10-04T13:11:34.173Z,120.05
2022-10-04T13:22:15.648Z,121.20
2022-10-04T13:32:28.800Z,121.32
2022-10-04T13:42:56.946Z,142.43
2022-10-04T13:53:35.232Z,139.20
2022-10-04T14:03:55.419Z,121.97
2022-10-04T14:14:55.773Z,111.00
2022-10-04T14:25:39.622Z,117.82
2022-10-04T14:35:53.353Z,109.67
2022-10-04T14:46:13.689Z,117.00
2022-10-04T14:56:58.206Z,105.93
2022-10-04T15:07:05.602Z,101.67
2022-10-04T15:17:26.259Z,98.23
2022-10-04T15:27:53.575Z,96.43
2022-10-04T15:38:07.242Z,116.53
2022-10-04T15:48:33.110Z,94.90
2022-10-04T15:58:59.492Z,92.00
2022-10-04T16:09:23.640Z,100.23
2022-10-04T16:19:49.283Z,113.93
2022-10-04T16:30:28.517Z,104.97
2022-10-04T16:40:38.685Z,107.97
2022-10-04T16:51:03.582Z,102.03
2022-10-04T17:02:07.340Z,101.63
2022-10-04T17:12:19.548Z,98.47
2022-10-04T17:22:34.401Z,104.70
2022-10-04T17:32:52.536Z,101.30
2022-10-04T17:43:07.046Z,99.57
2022-10-04T17:53:37.779Z,96.50
2022-10-04T18:03:46.957Z,103.03
2022-10-04T18:13:58.618Z,84.07
2022-10-04T18:24:21.005Z,89.67
2022-10-04T18:34:32.183Z,85.97
2022-10-04T18:44:48.554Z,87.77
2022-10-04T18:55:08.348Z,81.30
2022-10-04T19:05:21.896Z,84.93
2022-10-04T19:15:42.931Z,108.70
2022-10-04T19:26:17.501Z,102.73
2022-10-04T19:36:31.257Z,94.90
2022-10-04T19:46:44.710Z,83.67
2022-10-04T19:56:50.877Z,87.17
2022-10-04T20:07:01.196Z,86.27
2022-10-04T20:17:06.472Z,107.53
2022-10-04T20:28:03.796Z,92.17
2022-10-04T20:38:32.997Z,92.33
2022-10-04T20:48:37.815Z,92.20
2022-10-04T20:58:42.862Z,105.00
2022-10-04T21:08:49.220Z,99.23
2022-10-04T21:18:52.651Z,99.17
2022-10-04T21:28:58.514Z,89.03
2022-10-04T21:39:01.772Z,90.57
2022-10-04T21:49:06.871Z,91.00
2022-10-04T21:59:10.293Z,87.17
2022-10-04T22:09:15.040Z,85.33
2022-10-04T22:19:18.354Z,85.73
2022-10-04T22:29:23.336Z,88.03
2022-10-04T22:39:27.893Z,85.13
2022-10-04T22:49:34.753Z,86.93
2022-10-04T22:59:42.451Z,88.50
2022-10-04T23:09:47.318Z,87.77
2022-10-04T23:19:52.882Z,87.03
2022-10-04T23:30:03.038Z,84.87
2022-10-04T23:40:11.098Z,84.33
2022-10-04T23:50:24.842Z,86.20
